Marin Sunshine — WDE5919 — position and weather

sailwx.info

Track history (hours):
 
Tides and Currents Weather Stations Pressure Air Temp Water Temp Dewpoint Dewpoint Depression Visibility Wind Speed Wind Dir Waves Ship Positions

Marin Sunshine

Owner: Marine Express, alameda, CA. More information available from US FCC via Universal Licensing System and Coast Guard Vessel Documentation Center.

Last reported at 2017-Mar-29 20:16 UTC. Time now 2017-Jun-27 01:53 UTC.
Position N 37°58' W 121°22'.
Warning: this ship's position is months out of date.

MMSI: 367373280.

Date/timePositionNaut miles runAvg speedWind from/ knotsBaromVisibWave heightAir tempDewpointWater temp
2017-Mar-29 20:16N 37°58' W 121°22'1 1.8
2017-Mar-29 19:33N 37°57' W 121°20'0 0.3
2017-Mar-29 18:33N 37°57' W 121°20'2 1.5
2017-Mar-29 17:33N 37°58' W 121°22'  
2017-Mar-26 22:33N 37°57' W 121°20'0 0.0
2017-Mar-26 21:33N 37°57' W 121°20'0 0.1
2017-Mar-26 20:33N 37°57' W 121°20'1 1.1
2017-Mar-26 19:33N 37°57' W 121°21'1 0.5
2017-Mar-26 18:33N 37°58' W 121°22'0 0.0
2017-Mar-26 17:33N 37°58' W 121°22'0 0.0
2017-Mar-25 16:23N 37°58' W 121°22'2 1.9
2017-Mar-25 15:33N 37°57' W 121°20'0 0.0
2017-Mar-25 14:34N 37°57' W 121°20'2 1.5
2017-Mar-25 13:33N 37°58' W 121°22'0 0.0
2017-Mar-24 15:07N 37°58' W 121°22'2 3.5
2017-Mar-24 14:33N 37°57' W 121°20'1 1.1
2017-Mar-24 13:33N 37°57' W 121°21'1 0.9
2017-Mar-24 12:33N 37°58' W 121°22'0 0.0
2017-Mar-22 19:23N 37°58' W 121°22'1 1.1
2017-Mar-22 18:33N 37°57' W 121°21'1 0.8
2017-Mar-22 17:33N 37°58' W 121°22'0 0.0
2017-Mar-22 01:33N 37°58' W 121°22'2 1.6
2017-Mar-22 00:33N 37°57' W 121°20'1 0.7
2017-Mar-21 23:33N 37°57' W 121°19'2 2.0
2017-Mar-21 22:33N 37°58' W 121°22'0 0.0
2017-Mar-21 21:33N 37°58' W 121°22'0 0.5
2017-Mar-21 20:33N 37°57' W 121°21'1 1.4
2017-Mar-21 19:33N 37°57' W 121°20'0 0.0
2017-Mar-21 18:33N 37°57' W 121°20'2 2.0
2017-Mar-21 17:33N 37°58' W 121°22'0 0.0
2017-Mar-21 01:33N 37°58' W 121°22'2 2.0
2017-Mar-21 00:33N 37°57' W 121°20'3 2.9
2017-Mar-20 23:33N 37°59' W 121°23'1 1.0
2017-Mar-20 22:33N 37°58' W 121°22'0 0.0
2017-Mar-20 15:33N 37°58' W 121°22'2 1.6
2017-Mar-20 14:33N 37°57' W 121°20'0 0.5
2017-Mar-20 13:33N 37°57' W 121°21'1 1.1
2017-Mar-20 12:33N 37°58' W 121°22'  
Track history (hours):
 
Tides and Currents Weather Stations Pressure Air Temp Water Temp Dewpoint Dewpoint Depression Visibility Wind Speed Wind Dir Waves Ship Positions

Marin Sunshine

Owner: Marine Express, alameda, CA. More information available from US FCC via Universal Licensing System and Coast Guard Vessel Documentation Center.

Last reported at 2017-Mar-29 20:16 UTC. Time now 2017-Jun-27 01:53 UTC.
Position N 37°58' W 121°22'.
Warning: this ship's position is months out of date.

MMSI: 367373280.

Date/timePositionNaut miles runAvg speedWind from/ knotsBaromVisibWave heightAir tempDewpointWater temp
2017-Mar-29 20:16N 37°58' W 121°22'1 1.8
2017-Mar-29 19:33N 37°57' W 121°20'0 0.3
2017-Mar-29 18:33N 37°57' W 121°20'2 1.5
2017-Mar-29 17:33N 37°58' W 121°22'  
2017-Mar-26 22:33N 37°57' W 121°20'0 0.0
2017-Mar-26 21:33N 37°57' W 121°20'0 0.1
2017-Mar-26 20:33N 37°57' W 121°20'1 1.1
2017-Mar-26 19:33N 37°57' W 121°21'1 0.5
2017-Mar-26 18:33N 37°58' W 121°22'0 0.0
2017-Mar-26 17:33N 37°58' W 121°22'0 0.0
2017-Mar-25 16:23N 37°58' W 121°22'2 1.9
2017-Mar-25 15:33N 37°57' W 121°20'0 0.0
2017-Mar-25 14:34N 37°57' W 121°20'2 1.5
2017-Mar-25 13:33N 37°58' W 121°22'0 0.0
2017-Mar-24 15:07N 37°58' W 121°22'2 3.5
2017-Mar-24 14:33N 37°57' W 121°20'1 1.1
2017-Mar-24 13:33N 37°57' W 121°21'1 0.9
2017-Mar-24 12:33N 37°58' W 121°22'0 0.0
2017-Mar-22 19:23N 37°58' W 121°22'1 1.1
2017-Mar-22 18:33N 37°57' W 121°21'1 0.8
2017-Mar-22 17:33N 37°58' W 121°22'0 0.0
2017-Mar-22 01:33N 37°58' W 121°22'2 1.6
2017-Mar-22 00:33N 37°57' W 121°20'1 0.7
2017-Mar-21 23:33N 37°57' W 121°19'2 2.0
2017-Mar-21 22:33N 37°58' W 121°22'0 0.0
2017-Mar-21 21:33N 37°58' W 121°22'0 0.5
2017-Mar-21 20:33N 37°57' W 121°21'1 1.4
2017-Mar-21 19:33N 37°57' W 121°20'0 0.0
2017-Mar-21 18:33N 37°57' W 121°20'2 2.0
2017-Mar-21 17:33N 37°58' W 121°22'0 0.0
2017-Mar-21 01:33N 37°58' W 121°22'2 2.0
2017-Mar-21 00:33N 37°57' W 121°20'3 2.9
2017-Mar-20 23:33N 37°59' W 121°23'1 1.0
2017-Mar-20 22:33N 37°58' W 121°22'0 0.0
2017-Mar-20 15:33N 37°58' W 121°22'2 1.6
2017-Mar-20 14:33N 37°57' W 121°20'0 0.5
2017-Mar-20 13:33N 37°57' W 121°21'1 1.1
2017-Mar-20 12:33N 37°58' W 121°22'  

Dump ship's entire track history